Time;durP1;ratioP1;P1;durP2;ratioP2;P2;SDS_P1;SDS_P2;PMS_P1;PMS_P2;Temp;Humidity;BMP_temperature;BMP_pressure;BME280_temperature;BME280_humidity;BME280_pressure;Samples;Min_cycle;Max_cycle;Signal;HPM_P1;HPM_P2
2022/05/13 00:00:12;;;;;;;4.53;2.20;;;20.10;51.30;;;;;;5038594;28;20174;-94
2022/05/13 00:02:40;;;;;;;3.63;1.97;;;20.10;51.30;;;;;;5038830;28;20240;-94
2022/05/13 00:05:07;;;;;;;4.67;2.13;;;20.10;51.30;;;;;;5038605;28;20174;-95
2022/05/13 00:07:34;;;;;;;5.43;1.93;;;20.10;51.30;;;;;;5039342;28;20165;-94
2022/05/13 00:10:05;;;;;;;4.90;1.90;;;20.10;51.20;;;;;;5038018;28;20192;-94
2022/05/13 00:13:15;;;;;;;3.67;2.17;;;20.10;51.20;;;;;;5038101;28;20195;-94
2022/05/13 00:15:42;;;;;;;3.33;2.00;;;20.00;51.20;;;;;;5038842;28;20234;-94
2022/05/13 00:18:09;;;;;;;8.10;2.17;;;19.90;51.40;;;;;;5045169;28;20170;-94
2022/05/13 00:20:35;;;;;;;6.17;2.33;;;19.90;51.40;;;;;;5058310;28;20171;-94
2022/05/13 00:23:36;;;;;;;3.50;1.70;;;19.90;51.90;;;;;;5057615;28;20178;-94
2022/05/13 00:26:02;;;;;;;3.03;1.60;;;19.90;51.40;;;;;;5057925;28;20161;-94
2022/05/13 00:28:28;;;;;;;3.80;1.90;;;19.90;51.40;;;;;;5058286;28;20161;-93
2022/05/13 00:30:53;;;;;;;5.87;1.93;;;19.90;51.30;;;;;;5023637;28;20261;-93
2022/05/13 00:33:21;;;;;;;4.43;1.90;;;19.90;51.40;;;;;;5024406;28;20173;-93
2022/05/13 00:35:48;;;;;;;3.43;1.70;;;19.90;51.30;;;;;;5039221;28;20173;-93
2022/05/13 00:38:14;;;;;;;4.57;1.80;;;19.90;51.30;;;;;;5040262;28;20250;-94
2022/05/13 00:40:41;;;;;;;2.47;1.50;;;19.90;51.30;;;;;;5040324;28;20176;-93
2022/05/13 00:43:10;;;;;;;3.23;1.60;;;19.80;51.30;;;;;;5030973;28;20212;-93
2022/05/13 00:45:36;;;;;;;3.37;1.67;;;19.70;51.60;;;;;;5021083;28;20187;-94
2022/05/13 00:48:02;;;;;;;5.13;2.00;;;19.70;51.40;;;;;;5020641;28;20484;-94
2022/05/13 00:50:31;;;;;;;5.43;1.80;;;19.70;51.40;;;;;;5021988;28;20179;-93
2022/05/13 00:52:58;;;;;;;3.60;1.60;;;19.60;51.40;;;;;;5027339;28;20186;-93
2022/05/13 00:55:33;;;;;;;3.67;1.77;;;19.60;51.40;;;;;;5040241;28;20191;-93
2022/05/13 00:57:59;;;;;;;6.27;2.23;;;19.60;51.50;;;;;;5040181;28;20192;-93
2022/05/13 01:00:26;;;;;;;3.77;1.73;;;19.50;51.60;;;;;;5041717;28;20178;-93
2022/05/13 01:02:52;;;;;;;2.43;1.40;;;19.50;51.50;;;;;;5052637;28;20245;-93
2022/05/13 01:05:23;;;;;;;2.60;1.60;;;19.50;51.50;;;;;;5055284;28;20161;-93
2022/05/13 01:07:50;;;;;;;3.43;1.43;;;19.60;51.40;;;;;;5054643;28;20199;-93
2022/05/13 01:10:25;;;;;;;3.30;1.60;;;19.70;51.30;;;;;;5055189;28;20154;-94
2022/05/13 01:12:57;;;;;;;2.83;1.47;;;19.70;51.10;;;;;;5053718;28;20183;-93
2022/05/13 01:15:34;;;;;;;3.77;1.60;;;19.80;51.10;;;;;;5053487;28;20163;-92
2022/05/13 01:18:05;;;;;;;3.97;1.50;;;19.80;51.00;;;;;;5053909;28;20180;-94
2022/05/13 01:20:46;;;;;;;5.07;1.80;;;19.70;51.00;;;;;;5054221;28;20183;-93
2022/05/13 01:23:30;;;;;;;3.27;1.63;;;19.60;51.10;;;;;;5035175;28;20173;-93
2022/05/13 01:26:01;;;;;;;4.13;1.60;;;19.60;51.20;;;;;;5034929;28;20245;-93
2022/05/13 01:28:34;;;;;;;4.30;1.90;;;19.60;51.30;;;;;;5033647;28;20181;-93
2022/05/13 01:31:04;;;;;;;4.10;1.67;;;19.50;51.30;;;;;;5033877;28;20216;-94
2022/05/13 01:33:30;;;;;;;3.83;1.60;;;19.60;51.20;;;;;;5034296;28;20166;-93
2022/05/13 01:35:58;;;;;;;5.13;1.50;;;19.60;51.30;;;;;;5035358;28;20154;-94
2022/05/13 01:39:07;;;;;;;3.47;1.70;;;19.50;51.30;;;;;;5037999;28;20176;-94
2022/05/13 01:41:33;;;;;;;5.50;1.60;;;19.50;51.40;;;;;;5038004;28;20277;-93
2022/05/13 01:43:59;;;;;;;2.50;1.47;;;19.60;51.30;;;;;;5038095;28;20169;-94
2022/05/13 01:46:26;;;;;;;5.33;1.80;;;19.70;51.10;;;;;;5038052;28;20170;-94
2022/05/13 01:49:24;;;;;;;2.33;1.23;;;19.70;51.10;;;;;;5037928;28;20189;-93
2022/05/13 01:51:50;;;;;;;3.03;1.50;;;19.70;51.00;;;;;;5036974;28;20233;-94
2022/05/13 01:54:15;;;;;;;2.70;1.70;;;19.70;51.10;;;;;;5044582;28;20200;-93
2022/05/13 01:57:19;;;;;;;1.80;1.40;;;19.70;51.10;;;;;;5057067;28;20198;-95
2022/05/13 02:00:34;;;;;;;3.27;1.70;;;19.70;51.20;;;;;;5056504;28;20177;-94
2022/05/13 02:05:44;;;;;;;1.90;1.37;;;19.50;51.30;;;;;;5038452;28;20167;-95
2022/05/13 02:08:10;;;;;;;5.13;1.73;;;19.50;51.30;;;;;;5051865;28;20182;-93
2022/05/13 02:10:35;;;;;;;5.23;1.80;;;19.50;51.30;;;;;;5038701;28;20263;-94
2022/05/13 02:13:01;;;;;;;3.13;1.53;;;19.50;51.30;;;;;;5039708;28;20268;-94
2022/05/13 02:15:27;;;;;;;4.33;1.80;;;19.60;51.30;;;;;;5038561;28;20448;-93
2022/05/13 02:17:53;;;;;;;3.73;1.60;;;19.60;51.30;;;;;;5038522;28;20211;-93
2022/05/13 02:20:18;;;;;;;4.07;1.57;;;19.60;51.30;;;;;;5039457;28;20191;-93
2022/05/13 02:22:44;;;;;;;4.13;1.60;;;19.50;51.30;;;;;;5039862;28;20180;-93
2022/05/13 02:25:10;;;;;;;3.77;1.30;;;19.40;51.30;;;;;;5040536;28;20271;-93
2022/05/13 02:27:37;;;;;;;3.60;1.63;;;19.40;51.40;;;;;;5040041;28;20173;-93
2022/05/13 02:30:04;;;;;;;3.30;1.53;;;19.40;51.40;;;;;;5041150;28;20599;-94
2022/05/13 02:32:30;;;;;;;5.10;1.90;;;19.40;51.30;;;;;;5039555;28;20212;-94
2022/05/13 02:34:56;;;;;;;5.70;1.40;;;19.40;51.30;;;;;;5038640;28;20180;-93
2022/05/13 02:37:22;;;;;;;3.83;1.70;;;19.40;51.30;;;;;;5025477;28;20185;-93
2022/05/13 02:39:48;;;;;;;6.47;1.70;;;19.40;51.30;;;;;;5034457;28;20184;-93
2022/05/13 02:42:14;;;;;;;6.20;1.73;;;19.50;51.30;;;;;;5030723;28;20196;-93
2022/05/13 02:44:40;;;;;;;4.33;1.70;;;19.50;51.30;;;;;;5046436;28;20184;-93
2022/05/13 02:47:06;;;;;;;4.87;1.70;;;19.50;51.20;;;;;;5057510;28;20188;-93
2022/05/13 02:49:32;;;;;;;2.93;1.50;;;19.50;51.20;;;;;;5055380;28;20177;-94
2022/05/13 02:52:11;;;;;;;3.37;1.60;;;19.50;51.20;;;;;;5055729;28;20207;-93
2022/05/13 02:54:37;;;;;;;5.00;1.40;;;19.40;51.20;;;;;;5057709;28;20177;-93
2022/05/13 02:57:03;;;;;;;5.50;2.03;;;19.50;51.20;;;;;;5040483;28;20217;-93
2022/05/13 02:59:29;;;;;;;3.57;1.77;;;19.50;51.10;;;;;;5038905;28;20200;-94
2022/05/13 03:01:59;;;;;;;4.90;1.80;;;19.50;51.20;;;;;;5037952;28;20184;-93
2022/05/13 03:04:25;;;;;;;3.70;1.83;;;19.40;51.20;;;;;;5038148;28;20177;-94
2022/05/13 03:06:51;;;;;;;4.23;1.77;;;19.40;51.30;;;;;;5038862;28;20187;-93
2022/05/13 03:09:17;;;;;;;4.23;1.67;;;19.40;51.30;;;;;;5036043;28;20172;-93
2022/05/13 03:11:43;;;;;;;5.13;2.03;;;19.40;51.40;;;;;;5034413;28;20209;-93
2022/05/13 03:14:09;;;;;;;5.57;1.90;;;19.40;51.40;;;;;;5036742;28;20174;-94
2022/05/13 03:16:36;;;;;;;2.40;1.70;;;19.40;51.40;;;;;;5036445;28;20169;-94
2022/05/13 03:19:03;;;;;;;3.30;1.63;;;19.30;51.40;;;;;;5038944;28;20178;-93
2022/05/13 03:21:33;;;;;;;5.83;1.87;;;19.40;51.40;;;;;;5037572;28;20196;-94
2022/05/13 03:23:59;;;;;;;2.93;1.70;;;19.30;51.40;;;;;;5035114;28;20180;-94
2022/05/13 03:26:25;;;;;;;5.30;1.80;;;19.30;51.50;;;;;;5037752;28;20169;-94
2022/05/13 03:28:51;;;;;;;4.50;1.90;;;19.30;51.60;;;;;;5037499;28;20189;-94
2022/05/13 03:31:27;;;;;;;5.90;1.80;;;19.30;51.60;;;;;;5037689;28;20238;-94
2022/05/13 03:33:52;;;;;;;3.57;1.93;;;19.30;51.60;;;;;;5037336;28;20204;-94
2022/05/13 03:36:19;;;;;;;3.77;1.90;;;19.30;51.60;;;;;;5038447;28;20186;-94
2022/05/13 03:38:45;;;;;;;3.77;1.70;;;19.30;51.60;;;;;;5036164;28;20169;-93
2022/05/13 03:41:12;;;;;;;4.80;2.30;;;19.30;51.50;;;;;;5038939;28;20284;-94
2022/05/13 03:43:38;;;;;;;4.43;2.20;;;19.30;52.00;;;;;;5032678;28;20169;-94
2022/05/13 03:46:03;;;;;;;3.37;1.60;;;19.30;51.60;;;;;;5033087;28;20335;-95
2022/05/13 03:48:29;;;;;;;3.27;2.00;;;19.30;51.60;;;;;;5031340;28;20548;-94
2022/05/13 03:50:56;;;;;;;4.37;2.27;;;19.30;51.60;;;;;;5031073;28;20239;-93
2022/05/13 03:53:22;;;;;;;5.53;2.13;;;19.40;51.60;;;;;;5030417;28;20170;-93
2022/05/13 03:55:48;;;;;;;3.97;2.00;;;19.30;51.60;;;;;;5028908;28;20173;-92
2022/05/13 03:58:13;;;;;;;5.43;1.80;;;19.30;51.70;;;;;;5017847;28;20193;-93
2022/05/13 04:00:41;;;;;;;4.73;1.77;;;19.30;51.70;;;;;;5015285;28;20182;-92
2022/05/13 04:03:07;;;;;;;3.60;1.67;;;19.30;51.70;;;;;;5014914;28;20186;-92
2022/05/13 04:11:01;;;;;;;2.87;1.60;;;19.30;51.80;;;;;;5013500;28;20562;-92
2022/05/13 04:16:12;;;;;;;7.53;1.90;;;19.20;51.80;;;;;;5015463;28;20505;-92
2022/05/13 04:18:41;;;;;;;4.83;2.10;;;19.30;51.80;;;;;;5014602;28;20180;-93
2022/05/13 04:21:16;;;;;;;3.77;1.70;;;19.30;51.70;;;;;;5014860;28;20182;-93
2022/05/13 04:23:44;;;;;;;4.57;2.13;;;19.30;51.60;;;;;;5014510;28;20178;-93
2022/05/13 04:26:14;;;;;;;6.63;1.97;;;19.30;51.60;;;;;;5012906;28;20263;-92
2022/05/13 04:28:41;;;;;;;4.23;1.60;;;19.30;51.60;;;;;;5015698;28;20230;-93
2022/05/13 04:31:07;;;;;;;5.27;1.80;;;19.30;51.60;;;;;;5035691;28;20620;-94
2022/05/13 04:33:33;;;;;;;3.80;1.73;;;19.30;51.60;;;;;;5035127;28;20199;-94
2022/05/13 04:35:58;;;;;;;3.00;1.40;;;19.40;51.60;;;;;;5034580;28;20234;-94
2022/05/13 04:38:24;;;;;;;6.47;2.13;;;19.30;51.60;;;;;;5034794;28;20175;-94
2022/05/13 04:40:50;;;;;;;2.43;1.60;;;19.30;51.60;;;;;;5033987;28;20185;-95
2022/05/13 04:43:15;;;;;;;4.40;1.83;;;19.30;51.70;;;;;;5029077;28;20457;-93
2022/05/13 04:45:42;;;;;;;3.07;1.43;;;19.30;51.60;;;;;;5027717;28;20204;-93
2022/05/13 04:48:16;;;;;;;4.67;1.60;;;19.30;51.60;;;;;;5035637;28;20185;-94
2022/05/13 04:50:51;;;;;;;4.23;1.30;;;19.30;51.60;;;;;;5042992;28;20196;-93
2022/05/13 04:53:20;;;;;;;4.53;1.90;;;19.30;51.60;;;;;;5048151;28;20171;-94
2022/05/13 04:55:47;;;;;;;6.23;1.57;;;19.40;51.70;;;;;;5047705;28;20169;-94
2022/05/13 04:58:13;;;;;;;4.10;1.53;;;19.40;51.60;;;;;;5046213;28;20336;-94
2022/05/13 05:00:39;;;;;;;5.40;1.83;;;19.40;51.60;;;;;;5046564;28;20178;-93
2022/05/13 05:03:04;;;;;;;4.13;1.63;;;19.40;51.60;;;;;;5040232;28;20190;-92
2022/05/13 05:05:30;;;;;;;1.73;1.23;;;19.40;51.50;;;;;;5042032;28;20187;-92
2022/05/13 05:07:56;;;;;;;2.57;1.43;;;19.30;51.60;;;;;;5039149;28;20175;-92
2022/05/13 05:10:22;;;;;;;2.00;1.33;;;19.40;51.70;;;;;;5038486;28;20210;-92
2022/05/13 05:12:52;;;;;;;4.03;1.53;;;19.50;51.60;;;;;;5022881;28;20192;-93
2022/05/13 05:15:17;;;;;;;4.07;1.30;;;19.60;51.70;;;;;;5040147;28;20178;-92
2022/05/13 05:17:43;;;;;;;3.23;1.30;;;19.70;51.70;;;;;;5038006;28;20569;-92
2022/05/13 05:20:09;;;;;;;3.40;1.20;;;19.70;51.70;;;;;;5035332;28;20177;-92
2022/05/13 05:22:35;;;;;;;4.50;1.40;;;19.80;51.70;;;;;;5036793;28;20209;-92
2022/05/13 05:25:01;;;;;;;3.87;1.53;;;19.80;51.80;;;;;;5019716;28;20177;-92
2022/05/13 05:27:27;;;;;;;3.50;1.60;;;19.80;51.90;;;;;;5029284;28;20222;-92
2022/05/13 05:29:52;;;;;;;3.00;1.23;;;19.90;51.90;;;;;;5039334;28;20188;-92
2022/05/13 05:32:18;;;;;;;4.17;1.40;;;19.90;51.90;;;;;;5019058;28;20332;-92
2022/05/13 05:34:44;;;;;;;1.97;1.33;;;19.90;51.90;;;;;;5022821;28;20545;-92
2022/05/13 05:37:09;;;;;;;3.37;1.40;;;19.90;51.90;;;;;;5031334;28;20485;-93
2022/05/13 05:39:35;;;;;;;5.23;2.90;;;20.00;51.90;;;;;;5030011;28;20166;-93
2022/05/13 05:42:01;;;;;;;5.53;2.17;;;20.00;51.90;;;;;;5020021;28;20173;-93
2022/05/13 05:44:27;;;;;;;4.47;1.83;;;20.00;51.90;;;;;;5022194;28;20187;-94
2022/05/13 05:46:53;;;;;;;4.50;1.87;;;20.00;51.90;;;;;;5034525;28;20203;-93
2022/05/13 05:49:19;;;;;;;2.60;1.50;;;20.10;51.90;;;;;;5029377;28;20175;-94
2022/05/13 05:51:45;;;;;;;4.93;1.53;;;20.30;51.80;;;;;;5026466;28;20204;-93
2022/05/13 05:59:40;;;;;;;2.60;1.30;;;20.60;51.30;;;;;;5025274;28;20203;-93
2022/05/13 06:02:07;;;;;;;4.17;1.90;;;20.70;51.00;;;;;;5006415;28;20177;-93
2022/05/13 06:04:33;;;;;;;3.33;1.50;;;20.70;50.90;;;;;;5014493;28;20171;-93
2022/05/13 06:06:59;;;;;;;4.23;2.00;;;20.70;50.90;;;;;;5001682;28;20184;-94
2022/05/13 06:09:25;;;;;;;4.37;1.80;;;20.80;50.90;;;;;;5007728;28;20456;-94
2022/05/13 06:11:51;;;;;;;3.30;1.67;;;21.20;50.50;;;;;;5018394;28;20206;-93
2022/05/13 06:14:17;;;;;;;3.47;1.73;;;21.40;50.10;;;;;;5017317;28;20169;-93
2022/05/13 06:16:43;;;;;;;3.37;1.80;;;21.40;49.90;;;;;;5009297;28;20261;-93
2022/05/13 06:19:09;;;;;;;3.40;1.63;;;21.40;50.00;;;;;;5009386;28;20371;-93
2022/05/13 06:21:37;;;;;;;3.67;1.60;;;21.70;49.60;;;;;;5010825;28;20180;-93
2022/05/13 06:24:03;;;;;;;4.13;1.80;;;21.70;49.40;;;;;;5024500;28;20272;-93
2022/05/13 06:26:29;;;;;;;3.87;1.93;;;21.70;49.60;;;;;;5026044;28;20244;-94
2022/05/13 06:28:58;;;;;;;3.97;2.00;;;22.00;49.00;;;;;;5026797;28;20174;-94
2022/05/13 06:31:24;;;;;;;5.40;2.13;;;22.30;48.70;;;;;;5026463;28;20211;-93
2022/05/13 06:33:50;;;;;;;4.67;1.93;;;22.60;48.30;;;;;;5026516;28;20183;-94
2022/05/13 06:36:16;;;;;;;5.70;1.63;;;22.90;47.70;;;;;;5031105;28;20184;-93
2022/05/13 06:38:46;;;;;;;4.97;1.80;;;23.20;47.20;;;;;;5027633;28;20255;-94
2022/05/13 06:41:12;;;;;;;2.03;1.60;;;23.40;46.90;;;;;;5028692;28;20177;-94
2022/05/13 06:43:37;;;;;;;3.87;1.53;;;23.60;46.50;;;;;;5027816;28;20188;-93
2022/05/13 06:46:03;;;;;;;4.37;1.80;;;23.70;46.30;;;;;;5027800;28;20553;-93
2022/05/13 06:48:30;;;;;;;2.83;1.70;;;23.70;46.20;;;;;;5025062;28;20177;-93
2022/05/13 06:50:56;;;;;;;3.97;1.93;;;23.90;46.10;;;;;;5029270;28;20208;-94
2022/05/13 06:53:23;;;;;;;4.77;1.80;;;24.00;46.00;;;;;;5030583;28;20183;-94
2022/05/13 06:55:49;;;;;;;5.37;1.80;;;24.00;45.70;;;;;;5031611;28;20173;-94
2022/05/13 06:58:16;;;;;;;3.63;1.80;;;24.10;45.60;;;;;;5043935;28;20193;-94
2022/05/13 07:00:44;;;;;;;2.73;1.60;;;24.10;45.60;;;;;;5044843;28;20177;-94
2022/05/13 07:03:14;;;;;;;5.23;1.90;;;24.20;45.40;;;;;;5044020;28;20188;-94
2022/05/13 07:05:42;;;;;;;3.93;1.90;;;24.30;45.30;;;;;;5045501;28;20196;-94
2022/05/13 07:08:09;;;;;;;3.00;1.60;;;24.40;45.20;;;;;;5047054;28;20200;-94
2022/05/13 07:10:37;;;;;;;2.45;1.50;;;24.40;45.20;;;;;;5049576;28;20173;-95
2022/05/13 07:13:06;;;;;;;5.97;1.90;;;24.40;45.20;;;;;;5048145;28;20226;-94
2022/05/13 07:15:33;;;;;;;4.27;1.70;;;24.40;45.10;;;;;;5051291;28;20419;-94
2022/05/13 07:17:59;;;;;;;3.67;1.67;;;24.20;45.40;;;;;;5053369;28;20176;-94
2022/05/13 07:20:27;;;;;;;4.03;1.63;;;24.10;45.60;;;;;;5051406;28;20176;-95
2022/05/13 07:22:54;;;;;;;4.50;1.70;;;23.90;45.90;;;;;;5050578;28;20177;-94
2022/05/13 07:25:20;;;;;;;3.70;1.50;;;23.90;46.00;;;;;;5050045;28;20234;-94
2022/05/13 07:27:46;;;;;;;4.13;1.47;;;23.60;46.20;;;;;;5053817;28;20232;-94
2022/05/13 07:30:12;;;;;;;3.07;1.63;;;23.60;46.30;;;;;;5049819;28;20173;-94
2022/05/13 07:32:38;;;;;;;2.90;1.57;;;23.50;46.50;;;;;;5055637;28;20216;-94
2022/05/13 07:35:05;;;;;;;3.77;1.60;;;23.30;46.70;;;;;;5052241;28;20158;-94
2022/05/13 07:37:30;;;;;;;3.43;1.60;;;23.20;46.90;;;;;;5050213;28;20180;-94
2022/05/13 07:42:54;;;;;;;3.43;1.60;;;23.10;47.20;;;;;;5056855;28;20327;-94
2022/05/13 07:45:20;;;;;;;4.27;1.67;;;23.20;47.00;;;;;;5054935;28;20185;-94
2022/05/13 07:47:45;;;;;;;3.00;1.40;;;23.20;47.10;;;;;;5056436;28;20215;-94
2022/05/13 07:50:14;;;;;;;2.40;1.50;;;23.20;47.10;;;;;;5057199;28;20344;-93
2022/05/13 07:52:40;;;;;;;2.43;1.43;;;23.20;47.20;;;;;;5052086;28;20209;-94
2022/05/13 07:55:08;;;;;;;3.93;1.60;;;23.10;47.20;;;;;;5054666;28;20171;-95
2022/05/13 07:57:36;;;;;;;4.93;2.10;;;23.10;47.30;;;;;;5056438;28;20169;-95
2022/05/13 08:02:48;;;;;;;2.73;1.60;;;23.00;47.40;;;;;;5050173;28;20167;-93
2022/05/13 08:05:13;;;;;;;3.20;1.70;;;23.00;47.40;;;;;;5027741;28;20204;-94
2022/05/13 08:07:39;;;;;;;5.00;1.80;;;23.20;47.30;;;;;;5027912;28;20188;-95
2022/05/13 08:10:06;;;;;;;3.00;1.50;;;23.30;47.10;;;;;;5026443;28;20180;-94
2022/05/13 08:12:32;;;;;;;4.97;1.70;;;23.40;47.10;;;;;;5027408;28;20208;-94
2022/05/13 08:14:58;;;;;;;4.00;1.57;;;23.40;47.10;;;;;;5029396;28;20169;-94
2022/05/13 08:17:24;;;;;;;2.57;1.37;;;23.40;46.90;;;;;;5024187;28;20180;-94
2022/05/13 08:19:49;;;;;;;2.77;1.63;;;23.50;47.00;;;;;;5024589;28;20200;-94
2022/05/13 08:22:15;;;;;;;3.83;1.60;;;23.60;46.90;;;;;;5026886;28;20327;-94
2022/05/13 08:24:42;;;;;;;4.00;1.60;;;23.70;46.80;;;;;;5017626;28;20080;-93
2022/05/13 08:27:08;;;;;;;5.18;1.88;;;23.80;46.70;;;;;;5020068;28;20191;-94
2022/05/13 08:29:34;;;;;;;4.93;1.60;;;23.90;46.60;;;;;;5018924;28;20180;-94
2022/05/13 08:32:00;;;;;;;2.90;1.48;;;24.00;46.50;;;;;;5017550;28;20219;-94
2022/05/13 08:34:25;;;;;;;3.78;1.50;;;24.00;46.50;;;;;;5015314;28;20098;-94
2022/05/13 08:36:51;;;;;;;3.35;1.67;;;24.10;46.30;;;;;;5020122;28;20448;-94
2022/05/13 08:39:17;;;;;;;4.03;1.70;;;24.20;46.20;;;;;;5030039;28;20271;-95
2022/05/13 08:41:52;;;;;;;3.95;1.83;;;24.20;46.10;;;;;;5023622;28;20177;-94
2022/05/13 08:44:18;;;;;;;3.10;1.50;;;24.20;46.00;;;;;;5002588;28;20177;-95
2022/05/13 08:46:58;;;;;;;4.57;2.17;;;24.10;46.20;;;;;;5003531;28;20184;-94
2022/05/13 08:49:46;;;;;;;3.83;1.70;;;24.10;46.30;;;;;;5006747;28;20184;-94
2022/05/13 08:55:32;;;;;;;4.30;1.57;;;23.90;46.40;;;;;;5016459;28;20224;-93
2022/05/13 08:58:02;;;;;;;3.60;1.60;;;23.90;46.50;;;;;;5003266;28;20308;-94
2022/05/13 09:00:34;;;;;;;3.93;1.73;;;23.80;46.60;;;;;;5019709;28;20578;-94
2022/05/13 09:03:27;;;;;;;2.47;1.40;;;23.80;46.70;;;;;;5020223;28;20170;-94
2022/05/13 09:06:04;;;;;;;4.05;1.65;;;23.90;46.60;;;;;;4995486;28;20760;-95
2022/05/13 09:08:31;;;;;;;3.58;1.42;;;23.90;46.40;;;;;;5020147;28;20266;-93
2022/05/13 09:11:12;;;;;;;8.20;1.75;;;24.00;46.50;;;;;;5019053;28;20197;-94
2022/05/13 09:13:46;;;;;;;5.32;1.80;;;24.00;46.40;;;;;;5013134;28;20208;-93
2022/05/13 09:16:14;;;;;;;3.25;1.83;;;24.10;46.60;;;;;;5013200;28;20177;-94
2022/05/13 09:18:56;;;;;;;7.18;1.50;;;24.10;46.30;;;;;;5034939;28;20375;-95
2022/05/13 09:21:25;;;;;;;3.08;1.60;;;24.20;46.30;;;;;;5035935;28;20247;-93
2022/05/13 09:23:51;;;;;;;5.28;1.60;;;24.20;46.30;;;;;;5034801;28;20231;-94
2022/05/13 09:26:20;;;;;;;4.55;1.98;;;24.20;46.20;;;;;;5034737;28;20180;-94
2022/05/13 09:29:07;;;;;;;3.95;1.75;;;24.10;46.30;;;;;;5029041;28;20202;-93
2022/05/13 09:31:38;;;;;;;5.13;1.73;;;24.10;46.30;;;;;;5026730;28;20299;-93
2022/05/13 09:34:25;;;;;;;3.97;1.40;;;24.00;46.40;;;;;;5030204;28;20233;-94
2022/05/13 09:36:50;;;;;;;3.53;1.80;;;24.10;46.40;;;;;;5043321;28;20168;-95
2022/05/13 09:39:23;;;;;;;3.42;1.42;;;24.20;46.30;;;;;;5037894;28;20179;-94
2022/05/13 09:41:52;;;;;;;2.85;1.50;;;24.20;46.20;;;;;;5040674;28;20398;-95
2022/05/13 09:44:22;;;;;;;3.42;1.50;;;24.20;46.30;;;;;;5045025;28;20243;-94
2022/05/13 09:47:10;;;;;;;2.28;1.30;;;24.10;46.30;;;;;;5049790;28;20183;-95
2022/05/13 09:49:40;;;;;;;3.08;1.40;;;24.20;46.30;;;;;;5043507;28;20176;-95
2022/05/13 09:52:11;;;;;;;4.18;1.60;;;24.20;46.10;;;;;;5052612;28;20192;-94
2022/05/13 09:54:40;;;;;;;3.55;1.50;;;24.20;46.10;;;;;;5047614;28;20230;-95
2022/05/13 09:57:12;;;;;;;2.97;1.60;;;24.20;46.20;;;;;;5050787;28;20184;-95
2022/05/13 09:59:38;;;;;;;;;;;24.10;46.10;;;;;;5050976;28;20286;-95
2022/05/13 10:02:32;;;;;;;5.37;1.43;;;24.00;46.20;;;;;;5042742;28;19997;-94
2022/05/13 10:05:19;;;;;;;1.87;1.10;;;24.00;46.30;;;;;;5051212;28;20564;-95
2022/05/13 10:08:01;;;;;;;2.73;1.30;;;24.00;46.30;;;;;;5053442;28;20241;-95
2022/05/13 10:16:28;;;;;;;4.03;1.20;;;24.10;46.20;;;;;;5049572;28;20234;-93
2022/05/13 10:19:19;;;;;;;2.27;1.30;;;24.00;46.30;;;;;;5049555;28;20165;-94
2022/05/13 10:21:58;;;;;;;2.00;1.20;;;24.00;46.20;;;;;;5046720;28;20204;-93
2022/05/13 10:24:50;;;;;;;2.57;1.30;;;24.10;46.30;;;;;;5047838;28;20208;-94
2022/05/13 10:27:35;;;;;;;2.07;1.13;;;24.00;46.30;;;;;;5054718;28;20191;-95
2022/05/13 10:30:09;;;;;;;2.50;1.20;;;24.00;46.40;;;;;;5052894;28;20169;-94
2022/05/13 10:32:57;;;;;;;3.27;1.60;;;24.00;46.20;;;;;;5053350;28;20251;-93
2022/05/13 10:35:31;;;;;;;2.00;1.30;;;23.90;45.60;;;;;;5055649;28;20157;-94
2022/05/13 10:38:36;;;;;;;2.37;1.13;;;23.90;46.20;;;;;;5058411;28;20232;-94
2022/05/13 10:41:32;;;;;;;2.43;1.20;;;23.80;46.50;;;;;;4965270;28;20163;-94
2022/05/13 10:44:19;;;;;;;2.00;1.20;;;23.90;46.40;;;;;;4962386;28;20167;-94
2022/05/13 10:46:52;;;;;;;3.07;1.10;;;23.80;46.30;;;;;;5038294;28;20203;-95
2022/05/13 10:49:19;;;;;;;2.90;1.20;;;23.80;46.30;;;;;;5058650;28;20180;-94
2022/05/13 10:52:23;;;;;;;3.03;1.23;;;23.70;46.00;;;;;;5058929;28;20231;-94
2022/05/13 10:58:46;;;;;;;2.93;1.47;;;23.70;46.20;;;;;;5048051;28;20211;-93
2022/05/13 11:01:43;;;;;;;3.03;1.27;;;23.70;46.20;;;;;;5032568;28;20192;-94
2022/05/13 11:04:32;;;;;;;2.23;1.10;;;23.70;46.40;;;;;;5029729;28;20300;-93
2022/05/13 11:07:01;;;;;;;2.10;1.20;;;23.70;46.50;;;;;;5041598;28;20244;-95
2022/05/13 11:09:47;;;;;;;2.07;1.10;;;23.70;46.40;;;;;;5029782;28;20196;-93
2022/05/13 11:12:55;;;;;;;2.07;1.07;;;23.80;46.40;;;;;;5028791;28;20343;-95
2022/05/13 11:15:42;;;;;;;1.80;1.10;;;23.70;46.40;;;;;;4992399;28;20189;-95
2022/05/13 11:18:20;;;;;;;2.60;1.20;;;23.70;46.50;;;;;;5038062;28;20185;-94
2022/05/13 11:21:08;;;;;;;3.70;1.43;;;23.70;46.40;;;;;;5038017;28;20207;-94
2022/05/13 11:23:39;;;;;;;2.27;1.17;;;23.70;46.40;;;;;;5030951;28;20184;-94
2022/05/13 11:26:20;;;;;;;3.13;1.40;;;23.70;46.40;;;;;;5031082;28;20200;-94
2022/05/13 11:29:01;;;;;;;1.40;1.07;;;23.70;46.10;;;;;;5033462;28;20168;-93
2022/05/13 11:31:27;;;;;;;3.77;1.60;;;23.70;46.50;;;;;;5030553;28;20212;-94
2022/05/13 11:34:14;;;;;;;2.50;1.23;;;23.70;46.40;;;;;;5030200;28;20191;-94
2022/05/13 11:36:57;;;;;;;2.90;1.20;;;23.70;46.40;;;;;;5031582;28;20252;-94
2022/05/13 11:39:34;;;;;;;3.83;1.30;;;23.60;46.30;;;;;;5032042;28;20206;-94
2022/05/13 11:42:06;;;;;;;4.50;1.50;;;23.70;46.60;;;;;;5026545;28;20188;-94
2022/05/13 11:44:50;;;;;;;1.90;1.17;;;23.70;46.60;;;;;;5028561;28;20247;-93
2022/05/13 11:47:25;;;;;;;2.83;1.13;;;23.70;46.60;;;;;;5025400;28;20210;-93
2022/05/13 11:49:51;;;;;;;2.93;1.23;;;23.70;46.60;;;;;;5027044;28;20197;-94
2022/05/13 11:52:46;;;;;;;4.10;1.30;;;23.80;46.70;;;;;;5030135;28;20261;-93
2022/05/13 11:55:17;;;;;;;2.90;1.30;;;23.70;46.50;;;;;;5031578;28;20188;-94
2022/05/13 11:57:49;;;;;;;3.10;1.37;;;23.70;46.70;;;;;;5028522;28;20255;-94
2022/05/13 12:00:49;;;;;;;3.23;1.67;;;23.80;46.70;;;;;;5034081;28;20195;-94
2022/05/13 12:03:17;;;;;;;3.87;1.83;;;23.70;46.60;;;;;;4977622;28;20540;-93
2022/05/13 12:05:46;;;;;;;1.87;1.10;;;23.70;46.40;;;;;;5026922;28;20291;-94
2022/05/13 12:08:20;;;;;;;3.17;1.20;;;23.70;46.50;;;;;;5029666;28;20194;-93
2022/05/13 12:11:01;;;;;;;3.00;1.47;;;23.70;46.50;;;;;;5032646;28;20200;-94
2022/05/13 12:14:08;;;;;;;3.73;1.33;;;23.70;46.30;;;;;;5031164;28;20187;-94
2022/05/13 12:16:53;;;;;;;2.73;1.60;;;23.70;46.50;;;;;;5037626;28;20156;-94
2022/05/13 12:19:43;;;;;;;2.23;1.40;;;23.70;46.40;;;;;;5035825;28;20325;-94
2022/05/13 12:22:38;;;;;;;2.57;1.20;;;23.70;46.40;;;;;;5036891;28;20169;-94
2022/05/13 12:25:11;;;;;;;3.13;1.70;;;23.70;46.10;;;;;;5020989;28;20593;-94
2022/05/13 12:27:42;;;;;;;4.03;1.57;;;23.70;46.00;;;;;;5034931;28;20188;-95
2022/05/13 12:30:29;;;;;;;2.73;1.27;;;23.70;46.20;;;;;;5036787;28;20173;-96
2022/05/13 12:33:16;;;;;;;3.13;1.63;;;23.70;46.40;;;;;;5037329;28;20206;-95
2022/05/13 12:38:32;;;;;;;2.93;1.50;;;23.70;46.30;;;;;;5039545;28;20154;-95
2022/05/13 12:41:58;;;;;;;4.73;1.90;;;23.70;46.40;;;;;;5038661;28;20159;-94
2022/05/13 12:44:35;;;;;;;;;;;23.70;45.60;;;;;;4990735;28;20192;-94
2022/05/13 12:47:17;;;;;;;;;;;23.70;46.20;;;;;;5020529;28;20005;-94
2022/05/13 12:49:49;;;;;;;3.90;1.40;;;23.80;46.30;;;;;;5019241;28;20145;-95
2022/05/13 12:52:27;;;;;;;;;;;23.80;46.40;;;;;;5021005;28;19921;-94
2022/05/13 12:58:09;;;;;;;;;;;23.80;46.20;;;;;;5039859;28;19916;-95
2022/05/13 13:00:42;;;;;;;;;;;23.80;46.30;;;;;;5030073;28;19921;-94
2022/05/13 13:03:08;;;;;;;;;;;23.80;46.30;;;;;;5037229;28;19893;-94
2022/05/13 13:05:35;;;;;;;;;;;23.80;46.20;;;;;;5039259;28;19901;-95
2022/05/13 13:08:21;;;;;;;;;;;23.80;45.90;;;;;;5038877;28;19893;-94
2022/05/13 13:11:00;;;;;;;;;;;23.90;46.40;;;;;;5036861;28;19912;-94
2022/05/13 13:13:38;;;;;;;3.27;1.67;;;23.80;46.20;;;;;;5036664;28;19901;-95
2022/05/13 13:16:11;;;;;;;4.73;2.27;;;23.70;45.90;;;;;;5037734;28;20176;-94
2022/05/13 13:18:39;;;;;;;4.00;1.77;;;23.70;46.00;;;;;;5037861;28;20159;-94
2022/05/13 13:21:12;;;;;;;3.03;1.80;;;23.70;46.30;;;;;;5035715;28;20184;-95
2022/05/13 13:23:49;;;;;;;3.17;1.47;;;23.80;46.30;;;;;;5037563;28;20171;-95
2022/05/13 13:26:15;;;;;;;4.10;1.67;;;23.80;46.30;;;;;;5038305;28;20262;-95
2022/05/13 13:28:43;;;;;;;2.90;1.60;;;23.80;46.20;;;;;;5037265;28;20162;-94
2022/05/13 13:31:14;;;;;;;2.23;1.60;;;23.80;46.30;;;;;;5049309;28;20258;-95
2022/05/13 13:44:13;;;;;;;3.07;1.57;;;23.70;46.20;;;;;;5057180;28;20211;-94
2022/05/13 13:46:46;;;;;;;5.07;1.70;;;23.70;46.10;;;;;;5053997;28;20189;-94
2022/05/13 13:49:26;;;;;;;2.60;1.53;;;23.80;46.20;;;;;;5057300;28;20151;-95
2022/05/13 13:51:57;;;;;;;2.57;1.50;;;23.70;46.10;;;;;;5056958;28;20224;-94
2022/05/13 13:54:37;;;;;;;2.73;1.60;;;23.80;46.20;;;;;;5057878;28;20150;-94
2022/05/13 13:58:00;;;;;;;2.73;1.50;;;23.80;46.10;;;;;;5057820;28;20159;-93
2022/05/13 14:00:41;;;;;;;2.67;1.50;;;23.70;46.20;;;;;;5057503;28;20174;-95
2022/05/13 14:03:11;;;;;;;4.83;1.53;;;23.70;46.20;;;;;;5057364;28;20154;-94
2022/05/13 14:05:49;;;;;;;5.57;1.67;;;23.70;46.10;;;;;;5055659;28;20197;-94